createdAt,value
2019-05-13T00:00:04.693Z,2.40
2019-05-13T00:01:11.641Z,2.63
2019-05-13T00:02:16.093Z,2.50
2019-05-13T00:03:40.096Z,2.30
2019-05-13T00:04:44.458Z,2.20
2019-05-13T00:05:49.773Z,2.10
2019-05-13T00:06:57.891Z,2.10
2019-05-13T00:08:04.723Z,2.83
2019-05-13T00:09:11.050Z,1.80
2019-05-13T00:10:16.313Z,2.63
2019-05-13T00:11:20.699Z,2.20
2019-05-13T00:12:27.212Z,2.00
2019-05-13T00:13:33.689Z,2.33
2019-05-13T00:14:38.591Z,2.30
2019-05-13T00:15:44.444Z,2.30
2019-05-13T00:16:50.536Z,2.67
2019-05-13T00:17:55.046Z,2.20
2019-05-13T00:19:00.154Z,2.57
2019-05-13T00:20:05.172Z,2.67
2019-05-13T00:21:10.104Z,2.20
2019-05-13T00:22:14.498Z,2.23
2019-05-13T00:23:19.459Z,2.77
2019-05-13T00:24:24.385Z,2.57
2019-05-13T00:25:29.352Z,2.07
2019-05-13T00:26:34.003Z,3.00
2019-05-13T00:27:39.016Z,3.03
2019-05-13T00:28:44.397Z,2.93
2019-05-13T00:29:49.436Z,2.37
2019-05-13T00:30:54.386Z,2.23
2019-05-13T00:31:59.663Z,3.00
2019-05-13T00:33:04.186Z,2.67
2019-05-13T00:34:09.171Z,2.20
2019-05-13T00:35:14.165Z,2.43
2019-05-13T00:36:20.525Z,2.37
2019-05-13T00:37:24.896Z,2.30
2019-05-13T00:38:29.822Z,2.47
2019-05-13T00:39:34.283Z,2.40
2019-05-13T00:40:39.181Z,2.53
2019-05-13T00:41:44.255Z,2.40
2019-05-13T00:42:49.414Z,2.30
2019-05-13T00:43:53.877Z,2.40
2019-05-13T00:44:59.220Z,2.30
2019-05-13T00:46:05.779Z,2.20
2019-05-13T00:47:13.115Z,2.30
2019-05-13T00:48:16.798Z,2.17
2019-05-13T00:49:23.906Z,2.50
2019-05-13T00:50:27.998Z,1.80
2019-05-13T00:51:33.696Z,2.07
2019-05-13T00:52:38.402Z,2.17
2019-05-13T00:53:44.192Z,2.60
2019-05-13T00:54:48.775Z,2.40
2019-05-13T00:55:53.822Z,2.10
2019-05-13T00:56:58.466Z,2.70
2019-05-13T00:58:04.352Z,2.17
2019-05-13T00:59:09.197Z,2.83
2019-05-13T01:00:14.700Z,2.23
2019-05-13T01:01:19.135Z,2.20
2019-05-13T01:02:24.391Z,2.90
2019-05-13T01:03:28.910Z,2.60
2019-05-13T01:04:34.210Z,2.30
2019-05-13T01:05:38.668Z,2.60
2019-05-13T01:06:45.396Z,2.40
2019-05-13T01:07:49.796Z,2.30
2019-05-13T01:08:54.750Z,2.57
2019-05-13T01:10:00.510Z,2.27
2019-05-13T01:11:05.503Z,2.90
2019-05-13T01:12:09.805Z,2.37
2019-05-13T01:13:14.742Z,3.03
2019-05-13T01:14:19.465Z,2.70
2019-05-13T01:15:24.806Z,2.90
2019-05-13T01:16:29.340Z,2.90
2019-05-13T01:17:34.383Z,2.37
2019-05-13T01:18:38.781Z,2.33
2019-05-13T01:19:43.756Z,2.70
2019-05-13T01:20:48.114Z,2.23
2019-05-13T01:21:54.421Z,2.87
2019-05-13T01:22:58.777Z,2.77
2019-05-13T01:24:03.993Z,2.70
2019-05-13T01:25:09.007Z,2.47
2019-05-13T01:26:14.278Z,2.60
2019-05-13T01:27:18.893Z,2.97
2019-05-13T01:28:24.141Z,2.73
2019-05-13T01:29:28.794Z,2.80
2019-05-13T01:30:34.599Z,2.93
2019-05-13T01:31:39.359Z,2.87
2019-05-13T01:32:44.998Z,2.50
2019-05-13T01:33:49.455Z,2.57
2019-05-13T01:34:54.468Z,3.00
2019-05-13T01:36:00.768Z,2.93
2019-05-13T01:37:05.790Z,2.40
2019-05-13T01:38:10.298Z,3.00
2019-05-13T01:39:15.167Z,2.50
2019-05-13T01:40:19.637Z,2.87
2019-05-13T01:41:26.235Z,2.23
2019-05-13T01:42:30.711Z,3.00
2019-05-13T01:43:36.553Z,2.47
2019-05-13T01:44:43.636Z,3.20
2019-05-13T01:45:47.737Z,2.67
2019-05-13T01:46:53.742Z,3.20
2019-05-13T01:47:58.838Z,2.73
2019-05-13T01:49:04.996Z,2.90
2019-05-13T01:50:10.565Z,3.00
2019-05-13T01:51:14.920Z,3.20
2019-05-13T01:52:19.909Z,2.57
2019-05-13T01:53:24.543Z,2.70
2019-05-13T01:54:29.512Z,2.77
2019-05-13T01:55:34.351Z,2.50
2019-05-13T01:56:39.422Z,2.90
2019-05-13T01:57:44.314Z,2.80
2019-05-13T01:58:49.537Z,2.73
2019-05-13T01:59:53.978Z,3.00
2019-05-13T02:00:58.836Z,3.00
2019-05-13T02:02:03.603Z,2.60
2019-05-13T02:03:08.677Z,3.10
2019-05-13T02:04:14.164Z,3.23
2019-05-13T02:05:19.409Z,2.87
2019-05-13T02:06:24.142Z,3.03
2019-05-13T02:07:29.236Z,3.13
2019-05-13T02:08:33.901Z,2.97
2019-05-13T02:09:38.835Z,3.10
2019-05-13T02:11:13.181Z,3.07
2019-05-13T02:12:17.303Z,2.90
2019-05-13T02:13:24.527Z,2.97
2019-05-13T02:14:28.486Z,3.20
2019-05-13T02:15:33.821Z,3.13
2019-05-13T02:16:38.203Z,3.13
2019-05-13T02:17:44.702Z,3.47
2019-05-13T02:18:49.316Z,3.33
2019-05-13T02:19:54.297Z,3.63
2019-05-13T02:20:58.696Z,3.40
2019-05-13T02:22:04.189Z,3.63
2019-05-13T02:23:10.908Z,3.30
2019-05-13T02:24:15.804Z,3.10
2019-05-13T02:25:20.335Z,3.63
2019-05-13T02:26:25.264Z,3.73
2019-05-13T02:27:29.657Z,3.80
2019-05-13T02:28:34.641Z,3.00
2019-05-13T02:29:39.056Z,3.40
2019-05-13T02:30:45.621Z,3.63
2019-05-13T02:31:55.119Z,3.60
2019-05-13T02:32:56.850Z,3.47
2019-05-13T02:34:02.584Z,3.27
2019-05-13T02:35:07.935Z,3.60
2019-05-13T02:36:13.453Z,3.87
2019-05-13T02:37:22.969Z,3.80
2019-05-13T02:38:30.058Z,3.50
2019-05-13T02:39:33.034Z,3.77
2019-05-13T02:40:37.489Z,3.90
2019-05-13T02:41:43.139Z,3.67
2019-05-13T02:42:47.834Z,3.77
2019-05-13T02:43:52.881Z,3.87
2019-05-13T02:44:57.201Z,3.73
2019-05-13T02:46:04.277Z,3.70
2019-05-13T02:47:08.333Z,3.83
2019-05-13T02:48:13.739Z,3.63
2019-05-13T02:49:18.345Z,4.20
2019-05-13T02:50:23.308Z,4.30
2019-05-13T02:51:27.667Z,4.03
2019-05-13T02:52:33.495Z,4.20
2019-05-13T02:53:38.133Z,3.90
2019-05-13T02:54:43.139Z,3.77
2019-05-13T02:55:47.567Z,3.90
2019-05-13T02:56:52.849Z,3.47
2019-05-13T02:57:57.260Z,3.37
2019-05-13T02:59:03.772Z,3.80
2019-05-13T03:00:12.507Z,3.90
2019-05-13T03:01:15.797Z,3.77
2019-05-13T03:02:22.400Z,4.27
2019-05-13T03:03:26.854Z,4.33
2019-05-13T03:04:32.638Z,4.47
2019-05-13T03:05:37.745Z,4.20
2019-05-13T03:06:43.456Z,4.83
2019-05-13T03:07:48.857Z,4.03
2019-05-13T03:08:54.457Z,4.00
2019-05-13T03:10:03.786Z,4.00
2019-05-13T03:11:05.654Z,4.00
2019-05-13T03:12:12.975Z,4.60
2019-05-13T03:13:16.860Z,4.23
2019-05-13T03:14:23.961Z,4.10
2019-05-13T03:15:32.438Z,4.63
2019-05-13T03:17:03.253Z,4.20
2019-05-13T03:18:07.466Z,4.40
2019-05-13T03:19:13.525Z,4.03
2019-05-13T03:20:18.121Z,3.90
2019-05-13T03:21:23.471Z,4.00
2019-05-13T03:22:27.968Z,4.43
2019-05-13T03:23:33.176Z,4.17
2019-05-13T03:24:37.695Z,4.27
2019-05-13T03:25:43.028Z,4.37
2019-05-13T03:26:47.508Z,4.50
2019-05-13T03:27:53.940Z,4.57
2019-05-13T03:28:58.545Z,4.20
2019-05-13T03:30:04.906Z,4.37
2019-05-13T03:31:15.906Z,4.43
2019-05-13T03:32:17.431Z,4.90
2019-05-13T03:33:28.115Z,3.90
2019-05-13T03:34:35.172Z,4.63
2019-05-13T03:35:36.951Z,5.03
2019-05-13T03:36:45.887Z,4.73
2019-05-13T03:37:47.634Z,4.80
2019-05-13T03:39:04.495Z,4.63
2019-05-13T03:40:03.078Z,4.77
2019-05-13T03:41:07.738Z,4.57
2019-05-13T03:42:14.435Z,4.37
2019-05-13T03:43:22.983Z,4.30
2019-05-13T03:44:32.525Z,4.97
2019-05-13T03:45:43.265Z,4.50
2019-05-13T03:46:49.087Z,5.07
2019-05-13T03:47:55.954Z,4.17
2019-05-13T03:49:02.546Z,4.83
2019-05-13T03:50:07.651Z,4.73
2019-05-13T03:51:13.404Z,4.87
2019-05-13T03:52:22.205Z,4.60
2019-05-13T03:53:24.888Z,4.73
2019-05-13T03:54:32.767Z,4.60
2019-05-13T03:55:37.132Z,5.27
2019-05-13T03:56:42.896Z,4.53
2019-05-13T03:57:47.281Z,4.67
2019-05-13T03:58:53.650Z,5.10
2019-05-13T03:59:58.447Z,4.97
2019-05-13T04:01:03.304Z,4.90
2019-05-13T04:02:07.815Z,5.03
2019-05-13T04:03:13.569Z,5.00
2019-05-13T04:04:18.248Z,5.13
2019-05-13T04:05:23.781Z,4.10
2019-05-13T04:06:28.464Z,4.67
2019-05-13T04:07:33.383Z,5.50
2019-05-13T04:08:37.935Z,5.77
2019-05-13T04:09:42.843Z,4.97
2019-05-13T04:10:47.342Z,5.20
2019-05-13T04:11:52.885Z,4.63
2019-05-13T04:12:57.491Z,5.20
2019-05-13T04:14:03.231Z,5.20
2019-05-13T04:15:08.118Z,4.93
2019-05-13T04:16:13.511Z,4.70
2019-05-13T04:17:18.026Z,4.80
2019-05-13T04:18:23.782Z,5.33
2019-05-13T04:19:28.549Z,4.97
2019-05-13T04:20:33.970Z,4.37
2019-05-13T04:21:38.693Z,5.53
2019-05-13T04:22:45.445Z,4.93
2019-05-13T04:24:12.119Z,5.67
2019-05-13T04:25:16.118Z,5.97
2019-05-13T04:26:23.730Z,6.60
2019-05-13T04:27:27.245Z,7.00
2019-05-13T04:28:52.599Z,8.47
2019-05-13T04:29:57.447Z,9.60
2019-05-13T04:31:06.916Z,9.63
2019-05-13T04:32:12.910Z,9.97
2019-05-13T04:33:22.603Z,8.67
2019-05-13T04:34:26.266Z,7.83
2019-05-13T04:35:33.280Z,6.17
2019-05-13T04:36:37.616Z,4.37
2019-05-13T04:37:43.127Z,3.60
2019-05-13T04:38:48.241Z,2.90
2019-05-13T04:39:56.474Z,2.70
2019-05-13T04:40:59.448Z,2.55
2019-05-13T04:42:04.125Z,2.45
2019-05-13T04:43:09.091Z,2.37
2019-05-13T04:44:16.048Z,2.52
2019-05-13T04:45:24.100Z,2.75
2019-05-13T04:46:27.471Z,2.47
2019-05-13T04:47:33.428Z,1.95
2019-05-13T04:48:40.565Z,2.42
2019-05-13T04:50:03.911Z,2.10
2019-05-13T04:51:08.356Z,2.90
2019-05-13T04:52:14.132Z,2.40
2019-05-13T04:53:18.595Z,2.67
2019-05-13T04:54:23.519Z,2.72
2019-05-13T04:55:28.101Z,2.55
2019-05-13T04:56:33.288Z,2.72
2019-05-13T04:57:37.842Z,2.60
2019-05-13T04:58:43.465Z,2.60
2019-05-13T04:59:48.014Z,3.17
2019-05-13T05:01:18.416Z,2.50
2019-05-13T05:02:55.078Z,2.22
2019-05-13T05:04:21.144Z,2.62
2019-05-13T05:05:32.571Z,2.85
2019-05-13T05:07:22.011Z,2.72
2019-05-13T05:08:58.338Z,2.65
2019-05-13T05:10:43.030Z,3.10
2019-05-13T05:12:22.925Z,3.00
2019-05-13T05:13:38.817Z,2.95
2019-05-13T05:15:05.086Z,2.67
2019-05-13T05:16:44.952Z,2.50
2019-05-13T05:18:53.429Z,3.15
2019-05-13T05:20:32.061Z,3.50
2019-05-13T05:21:44.044Z,2.85
2019-05-13T05:23:13.209Z,2.80
2019-05-13T05:25:03.349Z,4.05
2019-05-13T05:26:45.635Z,3.40
2019-05-13T05:28:33.598Z,2.40
2019-05-13T05:29:56.749Z,2.80
2019-05-13T05:31:27.497Z,3.02
2019-05-13T05:33:11.356Z,2.90
2019-05-13T05:34:41.779Z,2.77
2019-05-13T05:36:21.659Z,3.40
2019-05-13T05:38:02.036Z,3.12
2019-05-13T05:39:22.734Z,2.95
2019-05-13T05:40:32.329Z,2.67
2019-05-13T05:41:37.336Z,3.15
2019-05-13T05:42:44.092Z,2.83
2019-05-13T05:43:52.188Z,3.22
2019-05-13T05:44:58.389Z,2.90
2019-05-13T05:46:04.664Z,2.60
2019-05-13T05:47:11.239Z,2.30
2019-05-13T05:48:18.565Z,2.17
2019-05-13T05:49:45.279Z,2.35
2019-05-13T05:50:52.574Z,2.70
2019-05-13T05:52:07.765Z,2.83
2019-05-13T05:53:14.927Z,2.40
2019-05-13T05:54:23.036Z,2.30
2019-05-13T05:55:29.233Z,2.55
2019-05-13T05:56:34.593Z,2.52
2019-05-13T05:57:42.197Z,2.67
2019-05-13T05:58:48.412Z,2.45
2019-05-13T05:59:54.389Z,2.10
2019-05-13T06:01:19.396Z,2.35
2019-05-13T06:02:27.303Z,2.55
2019-05-13T06:03:35.303Z,2.00
2019-05-13T06:04:42.718Z,2.02
2019-05-13T06:05:46.815Z,2.42
2019-05-13T06:06:52.253Z,2.27
2019-05-13T06:07:57.230Z,1.90
2019-05-13T06:09:04.610Z,1.82
2019-05-13T06:10:11.427Z,1.92
2019-05-13T06:11:15.962Z,1.77
2019-05-13T06:12:21.547Z,2.17
2019-05-13T06:13:26.470Z,2.22
2019-05-13T06:14:32.639Z,2.47
2019-05-13T06:15:37.541Z,2.00
2019-05-13T06:16:42.719Z,1.92
2019-05-13T06:17:47.176Z,2.05
2019-05-13T06:18:52.431Z,1.72
2019-05-13T06:19:57.001Z,1.90
2019-05-13T06:21:02.187Z,2.00
2019-05-13T06:22:06.595Z,2.42
2019-05-13T06:23:11.627Z,1.67
2019-05-13T06:24:16.213Z,2.10
2019-05-13T06:25:23.261Z,1.85
2019-05-13T06:26:27.222Z,2.12
2019-05-13T06:27:32.132Z,2.10
2019-05-13T06:28:37.599Z,2.08
2019-05-13T06:29:43.660Z,2.30
2019-05-13T06:30:51.832Z,2.00
2019-05-13T06:31:56.601Z,1.77
2019-05-13T06:33:02.740Z,2.30
2019-05-13T06:34:07.650Z,2.00
2019-05-13T06:35:12.013Z,2.02
2019-05-13T06:36:16.918Z,1.85
2019-05-13T06:37:21.893Z,1.92
2019-05-13T06:38:28.744Z,2.70
2019-05-13T06:39:33.175Z,2.30
2019-05-13T06:40:38.217Z,1.95
2019-05-13T06:41:44.345Z,1.60
2019-05-13T06:42:54.640Z,2.00
2019-05-13T06:43:58.932Z,1.65
2019-05-13T06:45:03.855Z,1.70
2019-05-13T06:46:08.419Z,2.02
2019-05-13T06:47:14.536Z,1.60
2019-05-13T06:48:18.961Z,1.62
2019-05-13T06:49:24.033Z,2.00
2019-05-13T06:50:28.380Z,1.80
2019-05-13T06:51:33.311Z,2.37
2019-05-13T06:52:38.930Z,2.02
2019-05-13T06:53:45.021Z,2.08
2019-05-13T06:54:51.873Z,1.70
2019-05-13T06:55:56.199Z,1.60
2019-05-13T06:57:04.385Z,2.27
2019-05-13T06:58:07.305Z,2.08
2019-05-13T06:59:11.926Z,2.83
2019-05-13T07:00:17.388Z,1.87
2019-05-13T07:01:21.893Z,3.00
2019-05-13T07:02:26.957Z,2.62
2019-05-13T07:03:32.280Z,2.37
2019-05-13T07:04:37.426Z,2.70
2019-05-13T07:05:42.466Z,2.10
2019-05-13T07:06:47.508Z,1.95
2019-05-13T07:07:51.900Z,2.15
2019-05-13T07:08:56.861Z,1.72
2019-05-13T07:10:02.515Z,2.02
2019-05-13T07:11:21.213Z,2.05
2019-05-13T07:12:13.968Z,2.12
2019-05-13T07:13:18.863Z,2.33
2019-05-13T07:14:24.393Z,2.08
2019-05-13T07:15:31.442Z,2.45
2019-05-13T07:16:35.857Z,2.10
2019-05-13T07:17:41.523Z,2.80
2019-05-13T07:18:46.224Z,2.27
2019-05-13T07:19:51.787Z,1.75
2019-05-13T07:20:56.400Z,1.87
2019-05-13T07:22:02.793Z,2.17
2019-05-13T07:23:07.658Z,2.35
2019-05-13T07:24:12.974Z,2.20
2019-05-13T07:25:17.604Z,1.95
2019-05-13T07:26:22.566Z,3.65
2019-05-13T07:27:27.162Z,2.15
2019-05-13T07:28:32.587Z,1.90
2019-05-13T07:29:36.973Z,2.15
2019-05-13T07:30:43.890Z,1.90
2019-05-13T07:31:48.289Z,2.17
2019-05-13T07:32:53.303Z,1.57
2019-05-13T07:34:02.089Z,2.20
2019-05-13T07:35:06.704Z,2.00
2019-05-13T07:36:12.700Z,2.08
2019-05-13T07:37:18.092Z,2.20
2019-05-13T07:38:22.806Z,1.85
2019-05-13T07:39:27.941Z,2.40
2019-05-13T07:40:32.462Z,1.80
2019-05-13T07:41:39.709Z,2.70
2019-05-13T07:42:44.424Z,2.02
2019-05-13T07:43:51.605Z,1.87
2019-05-13T07:44:56.669Z,2.27
2019-05-13T07:46:02.229Z,1.90
2019-05-13T07:47:08.297Z,1.92
2019-05-13T07:48:20.978Z,2.08
2019-05-13T07:49:22.438Z,2.27
2019-05-13T07:50:27.713Z,2.05
2019-05-13T07:51:32.330Z,2.10
2019-05-13T07:52:37.352Z,1.98
2019-05-13T07:53:42.628Z,1.92
2019-05-13T07:54:47.848Z,1.80
2019-05-13T07:55:52.553Z,1.80
2019-05-13T07:56:57.940Z,2.00
2019-05-13T07:58:03.477Z,1.92
2019-05-13T07:59:08.430Z,2.12
2019-05-13T08:00:13.066Z,2.33
2019-05-13T08:01:18.062Z,2.27
2019-05-13T08:02:24.359Z,2.00
2019-05-13T08:03:31.566Z,2.42
2019-05-13T08:04:35.578Z,2.30
2019-05-13T08:05:41.915Z,2.08
2019-05-13T08:06:46.414Z,1.87
2019-05-13T08:07:51.624Z,1.75
2019-05-13T08:08:57.958Z,1.75
2019-05-13T08:10:03.659Z,1.80
2019-05-13T08:11:09.927Z,1.82
2019-05-13T08:12:16.523Z,1.57
2019-05-13T08:13:22.459Z,1.60
2019-05-13T08:14:27.896Z,1.62
2019-05-13T08:15:34.205Z,2.25
2019-05-13T08:16:39.329Z,1.40
2019-05-13T08:17:47.249Z,1.20
2019-05-13T08:18:52.295Z,1.30
2019-05-13T08:19:57.698Z,1.87
2019-05-13T08:21:02.606Z,2.00
2019-05-13T08:22:06.973Z,1.65
2019-05-13T08:23:13.027Z,1.57
2019-05-13T08:24:22.454Z,1.87
2019-05-13T08:25:26.384Z,1.35
2019-05-13T08:26:32.444Z,1.95
2019-05-13T08:27:37.472Z,2.12
2019-05-13T08:28:57.003Z,1.52
2019-05-13T08:29:48.598Z,1.62
2019-05-13T08:30:54.072Z,1.85
2019-05-13T08:31:59.107Z,1.75
2019-05-13T08:33:03.502Z,1.55
2019-05-13T08:34:11.564Z,1.50
2019-05-13T08:35:16.085Z,1.75
2019-05-13T08:36:23.528Z,1.85
2019-05-13T08:37:28.411Z,1.80
2019-05-13T08:38:34.376Z,1.52
2019-05-13T08:39:40.853Z,1.80
2019-05-13T08:40:46.093Z,1.47
2019-05-13T08:41:51.681Z,1.22
2019-05-13T08:42:56.729Z,1.70
2019-05-13T08:44:02.079Z,1.50
2019-05-13T08:45:08.680Z,1.50
2019-05-13T08:46:13.405Z,1.65
2019-05-13T08:47:18.381Z,1.20
2019-05-13T08:48:22.871Z,1.70
2019-05-13T08:49:28.929Z,1.82
2019-05-13T08:50:33.403Z,1.42
2019-05-13T08:51:38.348Z,1.50
2019-05-13T08:52:42.793Z,1.50
2019-05-13T08:53:48.646Z,1.25
2019-05-13T08:55:16.006Z,1.75
2019-05-13T08:56:21.782Z,1.20
2019-05-13T08:57:26.640Z,1.40
2019-05-13T08:58:32.245Z,1.40
2019-05-13T08:59:37.886Z,1.40
2019-05-13T09:00:54.199Z,1.37
2019-05-13T09:01:58.807Z,1.12
2019-05-13T09:03:06.239Z,1.30
2019-05-13T09:04:11.863Z,1.40
2019-05-13T09:05:16.835Z,1.30
2019-05-13T09:06:22.199Z,1.37
2019-05-13T09:07:27.625Z,1.30
2019-05-13T09:08:32.149Z,1.85
2019-05-13T09:09:37.143Z,0.95
2019-05-13T09:10:41.572Z,1.30
2019-05-13T09:11:46.772Z,1.37
2019-05-13T09:12:53.737Z,1.90
2019-05-13T09:13:58.693Z,1.72
2019-05-13T09:15:03.554Z,1.40
2019-05-13T09:16:09.053Z,1.30
2019-05-13T09:17:13.402Z,1.42
2019-05-13T09:18:18.543Z,1.55
2019-05-13T09:19:22.986Z,1.90
2019-05-13T09:20:27.962Z,0.98
2019-05-13T09:21:32.397Z,1.30
2019-05-13T09:22:37.492Z,1.20
2019-05-13T09:23:42.024Z,0.90
2019-05-13T09:24:47.152Z,1.17
2019-05-13T09:25:52.097Z,1.10
2019-05-13T09:26:57.379Z,0.90
2019-05-13T09:28:02.574Z,0.82
2019-05-13T09:29:07.795Z,1.10
2019-05-13T09:30:12.388Z,0.70
2019-05-13T09:31:17.527Z,0.95
2019-05-13T09:32:23.347Z,0.93
2019-05-13T09:33:28.264Z,0.95
2019-05-13T09:34:33.082Z,0.90
2019-05-13T09:35:38.173Z,1.10
2019-05-13T09:36:42.540Z,1.00
2019-05-13T09:37:47.433Z,0.80
2019-05-13T09:38:52.495Z,1.20
2019-05-13T09:39:57.753Z,0.75
2019-05-13T09:41:03.066Z,1.32
2019-05-13T09:42:08.117Z,1.52
2019-05-13T09:43:13.055Z,0.62
2019-05-13T09:44:18.139Z,0.90
2019-05-13T09:45:23.996Z,1.00
2019-05-13T09:46:31.631Z,0.78
2019-05-13T09:47:35.097Z,0.60
2019-05-13T09:48:42.487Z,0.93
2019-05-13T09:49:47.249Z,0.78
2019-05-13T09:50:52.181Z,0.60
2019-05-13T09:51:56.580Z,1.17
2019-05-13T09:53:02.767Z,1.07
2019-05-13T09:54:07.279Z,0.82
2019-05-13T09:55:25.552Z,1.02
2019-05-13T09:56:41.345Z,0.80
2019-05-13T09:57:46.477Z,1.27
2019-05-13T09:58:51.402Z,1.17
2019-05-13T09:59:56.408Z,0.82
2019-05-13T10:01:00.751Z,0.70
2019-05-13T10:02:05.834Z,1.27
2019-05-13T10:03:26.680Z,1.02
2019-05-13T10:04:36.306Z,0.80
2019-05-13T10:05:48.137Z,1.00
2019-05-13T10:07:02.493Z,1.02
2019-05-13T10:08:07.149Z,0.93
2019-05-13T10:09:12.789Z,0.70
2019-05-13T10:10:17.587Z,0.82
2019-05-13T10:11:23.647Z,1.00
2019-05-13T10:12:28.106Z,1.42
2019-05-13T10:13:33.016Z,0.80
2019-05-13T10:14:37.445Z,1.05
2019-05-13T10:15:42.368Z,1.00
2019-05-13T10:17:06.774Z,1.20
2019-05-13T10:18:12.691Z,1.50
2019-05-13T10:19:17.445Z,1.00
2019-05-13T10:20:45.490Z,0.95
2019-05-13T10:21:52.211Z,1.27
2019-05-13T10:22:56.604Z,0.78
2019-05-13T10:24:01.052Z,0.75
2019-05-13T10:25:07.720Z,0.70
2019-05-13T10:26:14.377Z,1.02
2019-05-13T10:27:22.112Z,0.70
2019-05-13T10:28:27.004Z,0.90
2019-05-13T10:29:32.395Z,0.70
2019-05-13T10:30:36.879Z,1.00
2019-05-13T10:31:42.365Z,0.88
2019-05-13T10:32:47.014Z,0.80
2019-05-13T10:33:51.955Z,0.80
2019-05-13T10:34:57.421Z,0.90
2019-05-13T10:36:03.767Z,0.70
2019-05-13T10:37:11.330Z,0.95
2019-05-13T10:38:16.308Z,1.05
2019-05-13T10:39:22.319Z,1.10
2019-05-13T10:40:27.390Z,0.75
2019-05-13T10:41:33.314Z,0.82
2019-05-13T10:42:38.453Z,0.90
2019-05-13T10:43:44.186Z,0.70
2019-05-13T10:44:52.202Z,0.90
2019-05-13T10:45:56.626Z,1.30
2019-05-13T10:47:22.896Z,0.93
2019-05-13T10:48:27.444Z,1.00
2019-05-13T10:49:33.046Z,1.12
2019-05-13T10:50:37.858Z,0.80
2019-05-13T10:51:42.951Z,1.37
2019-05-13T10:52:47.517Z,1.00
2019-05-13T10:53:56.367Z,1.10
2019-05-13T10:55:02.027Z,1.20
2019-05-13T10:56:06.908Z,1.10
2019-05-13T10:57:13.751Z,0.80
2019-05-13T10:58:18.219Z,1.20
2019-05-13T10:59:23.143Z,1.07
2019-05-13T11:01:02.188Z,1.30
2019-05-13T11:02:05.817Z,1.12
2019-05-13T11:03:11.784Z,1.10
2019-05-13T11:04:17.166Z,1.00
2019-05-13T11:05:22.972Z,1.00
2019-05-13T11:06:27.500Z,1.00
2019-05-13T11:07:33.609Z,0.90
2019-05-13T11:08:38.103Z,0.95
2019-05-13T11:09:43.147Z,1.15
2019-05-13T11:10:47.955Z,0.90
2019-05-13T11:11:53.189Z,1.35
2019-05-13T11:12:57.677Z,1.10
2019-05-13T11:14:10.198Z,0.90
2019-05-13T11:15:09.089Z,1.17
2019-05-13T11:16:14.637Z,1.00
2019-05-13T11:17:25.608Z,0.90
2019-05-13T11:18:25.709Z,0.90
2019-05-13T11:19:36.008Z,0.93
2019-05-13T11:20:41.955Z,0.90
2019-05-13T11:21:50.612Z,0.93
2019-05-13T11:22:52.468Z,1.02
2019-05-13T11:23:58.654Z,0.85
2019-05-13T11:25:05.109Z,1.57
2019-05-13T11:26:10.098Z,0.90
2019-05-13T11:27:16.518Z,1.05
2019-05-13T11:28:21.206Z,1.00
2019-05-13T11:29:26.173Z,1.00
2019-05-13T11:30:31.925Z,0.80
2019-05-13T11:31:37.061Z,0.88
2019-05-13T11:32:42.729Z,0.78
2019-05-13T11:33:52.025Z,0.70
2019-05-13T11:34:55.908Z,0.90
2019-05-13T11:36:03.339Z,0.93
2019-05-13T11:37:06.944Z,1.00
2019-05-13T11:38:12.364Z,1.37
2019-05-13T11:39:17.974Z,0.88
2019-05-13T11:40:23.019Z,0.90
2019-05-13T11:41:27.471Z,0.80
2019-05-13T11:42:32.888Z,0.60
2019-05-13T11:43:37.536Z,0.90
2019-05-13T11:44:42.980Z,0.70
2019-05-13T11:46:07.712Z,0.88
2019-05-13T11:47:13.286Z,0.80
2019-05-13T11:48:23.589Z,0.70
2019-05-13T11:49:31.602Z,0.93
2019-05-13T11:50:35.862Z,0.93
2019-05-13T11:51:42.615Z,1.20
2019-05-13T11:52:47.005Z,0.68
2019-05-13T11:53:52.458Z,0.90
2019-05-13T11:54:57.550Z,0.88
2019-05-13T11:56:03.511Z,0.82
2019-05-13T11:57:12.514Z,0.88
2019-05-13T11:58:16.528Z,1.00
2019-05-13T11:59:22.077Z,0.80
2019-05-13T12:00:56.315Z,0.75
2019-05-13T12:02:04.421Z,0.82
2019-05-13T12:03:07.497Z,0.90
2019-05-13T12:04:12.763Z,0.90
2019-05-13T12:05:18.309Z,0.93
2019-05-13T12:06:23.916Z,0.88
2019-05-13T12:07:28.874Z,0.80
2019-05-13T12:08:35.511Z,0.82
2019-05-13T12:09:40.437Z,0.70
2019-05-13T12:10:44.959Z,0.80
2019-05-13T12:11:49.882Z,1.02
2019-05-13T12:12:54.287Z,1.07
2019-05-13T12:13:59.308Z,1.00
2019-05-13T12:15:26.424Z,0.90
2019-05-13T12:16:12.816Z,0.70
2019-05-13T12:17:17.393Z,1.10
2019-05-13T12:18:23.541Z,0.90
2019-05-13T12:19:28.573Z,1.07
2019-05-13T12:20:33.600Z,1.05
2019-05-13T12:21:43.339Z,1.10
2019-05-13T12:22:44.721Z,0.90
2019-05-13T12:23:49.186Z,1.02
2019-05-13T12:24:54.225Z,1.22
2019-05-13T12:25:58.974Z,0.90
2019-05-13T12:27:05.111Z,0.80
2019-05-13T12:28:11.413Z,0.88
2019-05-13T12:29:19.149Z,1.45
2019-05-13T12:30:24.797Z,1.00
2019-05-13T12:31:33.388Z,0.88
2019-05-13T12:32:35.917Z,1.00
2019-05-13T12:33:44.078Z,1.00
2019-05-13T12:34:48.649Z,1.17
2019-05-13T12:35:53.931Z,1.10
2019-05-13T12:36:58.582Z,0.90
2019-05-13T12:38:03.575Z,1.00
2019-05-13T12:39:08.707Z,1.22
2019-05-13T12:40:14.672Z,1.30
2019-05-13T12:41:19.250Z,0.88
2019-05-13T12:42:24.527Z,1.30
2019-05-13T12:43:31.849Z,1.00
2019-05-13T12:44:59.431Z,1.60
2019-05-13T12:45:43.422Z,0.88
2019-05-13T12:46:50.413Z,1.15
2019-05-13T12:47:54.723Z,1.10
2019-05-13T12:48:59.910Z,0.88
2019-05-13T12:50:26.095Z,1.00
2019-05-13T12:51:32.787Z,0.93
2019-05-13T12:52:37.225Z,1.67
2019-05-13T12:53:43.550Z,1.25
2019-05-13T12:54:48.195Z,1.00
2019-05-13T12:55:56.842Z,1.10
2019-05-13T12:56:59.938Z,1.30
2019-05-13T12:58:06.107Z,0.88
2019-05-13T12:59:13.173Z,0.72
2019-05-13T13:00:17.844Z,1.00
2019-05-13T13:01:23.873Z,1.07
2019-05-13T13:02:32.358Z,1.10
2019-05-13T13:03:35.491Z,1.30
2019-05-13T13:05:07.427Z,0.88
2019-05-13T13:05:48.488Z,0.90
2019-05-13T13:06:53.637Z,1.10
2019-05-13T13:08:16.676Z,1.05
2019-05-13T13:09:06.710Z,1.10
2019-05-13T13:10:14.593Z,0.90
2019-05-13T13:11:18.618Z,1.10
2019-05-13T13:12:33.885Z,1.05
2019-05-13T13:13:54.042Z,1.10
2019-05-13T13:14:39.586Z,1.10
2019-05-13T13:15:48.439Z,0.88
2019-05-13T13:16:49.253Z,1.22
2019-05-13T13:17:54.274Z,1.10
2019-05-13T13:18:58.749Z,0.90
2019-05-13T13:20:08.751Z,1.25
2019-05-13T13:21:13.877Z,1.00
2019-05-13T13:22:17.044Z,1.15
2019-05-13T13:23:23.728Z,1.00
2019-05-13T13:24:28.664Z,1.20
2019-05-13T13:25:33.977Z,1.10
2019-05-13T13:26:42.432Z,1.05
2019-05-13T13:28:08.615Z,1.10
2019-05-13T13:28:55.882Z,0.98
2019-05-13T13:30:03.251Z,1.35
2019-05-13T13:31:04.784Z,1.47
2019-05-13T13:32:12.521Z,1.12
2019-05-13T13:33:16.563Z,1.32
2019-05-13T13:34:26.073Z,1.00
2019-05-13T13:35:28.257Z,1.20
2019-05-13T13:36:33.782Z,1.10
2019-05-13T13:37:45.458Z,0.95
2019-05-13T13:38:45.167Z,1.10
2019-05-13T13:39:54.331Z,0.80
2019-05-13T13:40:56.250Z,1.15
2019-05-13T13:42:05.683Z,0.90
2019-05-13T13:43:07.484Z,1.20
2019-05-13T13:44:12.885Z,0.80
2019-05-13T13:45:17.441Z,0.90
2019-05-13T13:46:33.784Z,1.27
2019-05-13T13:47:32.460Z,1.05
2019-05-13T13:48:35.745Z,1.30
2019-05-13T13:49:43.602Z,0.93
2019-05-13T13:50:47.157Z,1.10
2019-05-13T13:51:51.582Z,1.20
2019-05-13T13:52:56.538Z,1.02
2019-05-13T13:54:01.032Z,1.00
2019-05-13T13:55:08.799Z,1.37
2019-05-13T13:56:14.624Z,1.00
2019-05-13T13:57:25.219Z,0.98
2019-05-13T13:58:25.948Z,1.05
2019-05-13T13:59:36.043Z,1.22
2019-05-13T14:00:47.225Z,1.30
2019-05-13T14:01:44.070Z,1.57
2019-05-13T14:02:48.664Z,1.00
2019-05-13T14:03:53.817Z,1.45
2019-05-13T14:04:58.209Z,1.37
2019-05-13T14:07:13.230Z,1.30
2019-05-13T14:07:30.021Z,1.20
2019-05-13T14:08:16.564Z,1.10
2019-05-13T14:09:22.380Z,1.45
2019-05-13T14:10:27.646Z,1.22
2019-05-13T14:11:33.115Z,1.30
2019-05-13T14:12:38.270Z,1.30
2019-05-13T14:13:42.778Z,1.87
2019-05-13T14:14:47.872Z,1.10
2019-05-13T14:15:54.148Z,1.10
2019-05-13T14:16:59.342Z,0.88
2019-05-13T14:18:03.921Z,1.00
2019-05-13T14:19:08.948Z,1.22
2019-05-13T14:20:14.299Z,1.45
2019-05-13T14:21:21.133Z,1.42
2019-05-13T14:22:25.632Z,1.20
2019-05-13T14:23:31.752Z,1.30
2019-05-13T14:24:36.512Z,1.30
2019-05-13T14:25:42.200Z,1.25
2019-05-13T14:26:46.900Z,1.40
2019-05-13T14:27:52.741Z,1.50
2019-05-13T14:28:57.478Z,1.30
2019-05-13T14:30:04.599Z,1.32
2019-05-13T14:31:09.186Z,1.40
2019-05-13T14:32:14.753Z,1.55
2019-05-13T14:33:19.439Z,1.45
2019-05-13T14:34:24.816Z,1.42
2019-05-13T14:35:29.284Z,1.27
2019-05-13T14:36:34.349Z,1.50
2019-05-13T14:37:39.004Z,1.62
2019-05-13T14:38:44.000Z,1.62
2019-05-13T14:39:48.350Z,1.65
2019-05-13T14:40:53.295Z,1.60
2019-05-13T14:41:57.675Z,1.30
2019-05-13T14:43:03.708Z,1.15
2019-05-13T14:44:08.348Z,1.32
2019-05-13T14:45:15.617Z,1.40
2019-05-13T14:46:25.249Z,1.70
2019-05-13T14:47:26.957Z,1.32
2019-05-13T14:48:32.976Z,1.50
2019-05-13T14:49:38.317Z,1.70
2019-05-13T14:50:42.779Z,1.42